createdAt,value
2023-03-15T00:00:38.075Z,1.2
2023-03-15T00:01:41.451Z,1.2
2023-03-15T00:02:45.488Z,1.2
2023-03-15T00:03:48.582Z,1.2
2023-03-15T00:04:51.485Z,1.2
2023-03-15T00:05:55.269Z,1.2
2023-03-15T00:06:58.550Z,1.3
2023-03-15T00:08:05.670Z,1.3
2023-03-15T00:09:08.500Z,1.3
2023-03-15T00:10:11.251Z,1.4
2023-03-15T00:11:13.422Z,1.4
2023-03-15T00:12:16.771Z,1.4
2023-03-15T00:13:20.154Z,1.3
2023-03-15T00:14:23.861Z,1.3
2023-03-15T00:15:26.916Z,1.3
2023-03-15T00:16:29.642Z,1.3
2023-03-15T00:17:32.818Z,1.2
2023-03-15T00:18:36.545Z,1.2
2023-03-15T00:19:39.603Z,1.2
2023-03-15T00:20:42.035Z,1.1
2023-03-15T00:21:44.839Z,1.1
2023-03-15T00:22:48.973Z,1.2
2023-03-15T00:23:52.884Z,1.2
2023-03-15T00:24:56.315Z,1.1
2023-03-15T00:25:58.750Z,1.1
2023-03-15T00:27:00.993Z,1.1
2023-03-15T00:28:03.798Z,1
2023-03-15T00:29:06.967Z,1
2023-03-15T00:30:10.244Z,1
2023-03-15T00:31:13.806Z,1
2023-03-15T00:32:17.541Z,1
2023-03-15T00:33:20.985Z,1
2023-03-15T00:34:24.082Z,1.1
2023-03-15T00:35:26.628Z,1.1
2023-03-15T00:36:29.448Z,1.1
2023-03-15T00:37:32.489Z,1.1
2023-03-15T00:38:35.404Z,1
2023-03-15T00:39:39.511Z,1
2023-03-15T00:40:42.721Z,1.1
2023-03-15T00:41:46.366Z,1
2023-03-15T00:42:49.438Z,1.1
2023-03-15T00:43:52.864Z,1.1
2023-03-15T00:44:56.934Z,1
2023-03-15T00:46:00.129Z,1.1
2023-03-15T00:47:02.665Z,1
2023-03-15T00:48:05.516Z,1.1
2023-03-15T00:49:08.224Z,1.1
2023-03-15T00:50:10.683Z,1
2023-03-15T00:51:13.459Z,1.1
2023-03-15T00:52:16.572Z,1.1
2023-03-15T00:53:19.385Z,1
2023-03-15T00:54:23.106Z,1
2023-03-15T00:55:26.652Z,1
2023-03-15T00:56:29.827Z,1
2023-03-15T00:57:33.169Z,1
2023-03-15T00:58:36.622Z,1
2023-03-15T00:59:40.297Z,0.9
2023-03-15T01:00:43.149Z,0.9
2023-03-15T01:01:46.700Z,0.9
2023-03-15T01:02:49.992Z,0.9
2023-03-15T01:03:53.582Z,0.9
2023-03-15T01:04:56.687Z,0.8
2023-03-15T01:05:59.845Z,0.8
2023-03-15T01:07:02.916Z,0.8
2023-03-15T01:08:05.831Z,0.7
2023-03-15T01:09:09.101Z,0.8
2023-03-15T01:10:12.212Z,0.8
2023-03-15T01:11:16.319Z,0.7
2023-03-15T01:12:19.328Z,0.8
2023-03-15T01:13:22.549Z,0.8
2023-03-15T01:14:25.287Z,0.8
2023-03-15T01:15:28.093Z,0.9
2023-03-15T01:16:31.895Z,0.8
2023-03-15T01:17:35.049Z,0.8
2023-03-15T01:18:38.795Z,0.8
2023-03-15T01:19:41.544Z,0.8
2023-03-15T01:20:45.249Z,0.8
2023-03-15T01:21:48.521Z,0.9
2023-03-15T01:22:50.944Z,0.9
2023-03-15T01:23:54.310Z,0.9
2023-03-15T01:24:57.062Z,0.9
2023-03-15T01:26:00.203Z,0.9
2023-03-15T01:27:03.727Z,0.8
2023-03-15T01:28:07.100Z,0.7
2023-03-15T01:29:10.088Z,0.7
2023-03-15T01:30:12.910Z,0.8
2023-03-15T01:31:16.636Z,0.8
2023-03-15T01:32:20.822Z,0.9
2023-03-15T01:33:24.613Z,0.9
2023-03-15T01:34:27.725Z,0.9
2023-03-15T01:35:31.212Z,0.9
2023-03-15T01:36:34.773Z,0.9
2023-03-15T01:37:37.790Z,0.9
2023-03-15T01:38:40.961Z,0.8
2023-03-15T01:39:44.322Z,0.9
2023-03-15T01:40:47.709Z,0.9
2023-03-15T01:41:50.839Z,0.9
2023-03-15T01:42:54.976Z,0.9
2023-03-15T01:43:58.769Z,0.9
2023-03-15T01:45:01.586Z,0.9
2023-03-15T01:46:04.633Z,0.8
2023-03-15T01:47:08.443Z,0.8
2023-03-15T01:48:11.038Z,0.8
2023-03-15T01:49:14.550Z,0.8
2023-03-15T01:50:17.371Z,0.7
2023-03-15T01:51:21.020Z,0.7
2023-03-15T01:52:24.413Z,0.8
2023-03-15T01:53:27.494Z,0.7
2023-03-15T01:54:30.251Z,0.7
2023-03-15T01:55:33.066Z,0.8
2023-03-15T01:56:36.497Z,0.8
2023-03-15T01:57:40.152Z,0.7
2023-03-15T01:58:44.255Z,0.7
2023-03-15T01:59:47.314Z,0.6
2023-03-15T02:00:50.378Z,0.7
2023-03-15T02:01:53.647Z,0.6
2023-03-15T02:02:56.801Z,0.6
2023-03-15T02:03:59.249Z,0.6
2023-03-15T02:05:01.981Z,0.6
2023-03-15T02:06:04.889Z,0.7
2023-03-15T02:07:08.151Z,0.7
2023-03-15T02:08:11.183Z,0.7
2023-03-15T02:09:14.912Z,0.7
2023-03-15T02:10:18.088Z,0.7
2023-03-15T02:11:21.488Z,0.7
2023-03-15T02:12:24.600Z,0.8
2023-03-15T02:13:27.777Z,0.7
2023-03-15T02:14:32.024Z,0.7
2023-03-15T02:15:34.855Z,0.7
2023-03-15T02:16:38.121Z,0.7
2023-03-15T02:17:41.403Z,0.7
2023-03-15T02:18:44.220Z,0.7
2023-03-15T02:19:46.737Z,0.7
2023-03-15T02:20:50.006Z,0.7
2023-03-15T02:21:53.269Z,0.7
2023-03-15T02:22:56.276Z,0.6
2023-03-15T02:24:00.201Z,0.6
2023-03-15T02:25:03.549Z,0.6
2023-03-15T02:26:06.371Z,0.6
2023-03-15T02:27:09.398Z,0.5
2023-03-15T02:28:12.643Z,0.5
2023-03-15T02:29:15.844Z,0.5
2023-03-15T02:30:19.494Z,0.5
2023-03-15T02:31:23.193Z,0.5
2023-03-15T02:32:26.608Z,0.5
2023-03-15T02:33:29.601Z,0.4
2023-03-15T02:34:32.917Z,0.4
2023-03-15T02:35:35.740Z,0.4
2023-03-15T02:36:39.092Z,0.5
2023-03-15T02:37:42.322Z,0.5
2023-03-15T02:38:45.948Z,0.5
2023-03-15T02:39:48.953Z,0.4
2023-03-15T02:40:52.680Z,0.4
2023-03-15T02:41:56.175Z,0.4
2023-03-15T02:42:59.593Z,0.4
2023-03-15T02:44:03.399Z,0.4
2023-03-15T02:45:06.948Z,0.4
2023-03-15T02:46:11.245Z,0.5
2023-03-15T02:47:14.738Z,0.5
2023-03-15T02:48:17.533Z,0.4
2023-03-15T02:49:20.210Z,0.4
2023-03-15T02:50:23.203Z,0.3
2023-03-15T02:51:26.927Z,0.4
2023-03-15T02:52:29.391Z,0.4
2023-03-15T02:53:32.531Z,0.4
2023-03-15T02:54:35.556Z,0.4
2023-03-15T02:55:38.283Z,0.4
2023-03-15T02:56:41.744Z,0.3
2023-03-15T02:57:44.265Z,0.3
2023-03-15T02:58:47.193Z,0.3
2023-03-15T02:59:50.549Z,0.4
2023-03-15T03:00:54.087Z,0.4
2023-03-15T03:01:58.414Z,0.3
2023-03-15T03:03:01.134Z,0.4
2023-03-15T03:04:03.054Z,0.4
2023-03-15T03:05:06.221Z,0.4
2023-03-15T03:06:08.930Z,0.4
2023-03-15T03:07:11.400Z,0.4
2023-03-15T03:08:14.217Z,0.4
2023-03-15T03:09:17.621Z,0.4
2023-03-15T03:10:21.379Z,0.4
2023-03-15T03:11:25.173Z,0.4
2023-03-15T03:12:27.883Z,0.4
2023-03-15T03:13:30.306Z,0.4
2023-03-15T03:14:34.028Z,0.4
2023-03-15T03:15:37.325Z,0.4
2023-03-15T03:16:40.809Z,0.4
2023-03-15T03:17:44.686Z,0.4
2023-03-15T03:18:47.291Z,0.3
2023-03-15T03:19:49.729Z,0.4
2023-03-15T03:20:51.931Z,0.4
2023-03-15T03:21:55.628Z,0.4
2023-03-15T03:22:57.818Z,0.4
2023-03-15T03:24:01.524Z,0.4
2023-03-15T03:25:04.551Z,0.4
2023-03-15T03:26:06.976Z,0.5
2023-03-15T03:27:10.044Z,0.5
2023-03-15T03:28:13.558Z,0.5
2023-03-15T03:29:17.487Z,0.6
2023-03-15T03:30:21.135Z,0.6
2023-03-15T03:31:24.751Z,0.5
2023-03-15T03:32:28.222Z,0.5
2023-03-15T03:33:32.097Z,0.5
2023-03-15T03:34:35.507Z,0.6
2023-03-15T03:35:38.618Z,0.6
2023-03-15T03:36:42.035Z,0.6
2023-03-15T03:37:44.758Z,0.6
2023-03-15T03:38:47.587Z,0.6
2023-03-15T03:39:50.382Z,0.7
2023-03-15T03:40:53.076Z,0.7
2023-03-15T03:41:56.144Z,0.7
2023-03-15T03:42:59.126Z,0.7
2023-03-15T03:44:02.131Z,0.7
2023-03-15T03:45:05.341Z,0.7
2023-03-15T03:46:08.633Z,0.7
2023-03-15T03:47:12.344Z,0.7
2023-03-15T03:48:15.356Z,0.7
2023-03-15T03:49:19.397Z,0.7
2023-03-15T03:50:22.525Z,0.8
2023-03-15T03:51:25.613Z,0.8
2023-03-15T03:52:29.264Z,0.8
2023-03-15T03:53:31.996Z,0.8
2023-03-15T03:54:35.288Z,0.8
2023-03-15T03:55:38.075Z,0.8
2023-03-15T03:56:40.869Z,0.8
2023-03-15T03:57:44.444Z,0.8
2023-03-15T03:58:46.961Z,0.8
2023-03-15T03:59:49.801Z,0.8
2023-03-15T04:00:52.512Z,0.8
2023-03-15T04:01:55.860Z,0.8
2023-03-15T04:02:58.701Z,0.8
2023-03-15T04:04:02.129Z,0.8
2023-03-15T04:05:06.322Z,0.8
2023-03-15T04:06:09.474Z,0.9
2023-03-15T04:07:12.824Z,0.9
2023-03-15T04:08:18.259Z,0.9
2023-03-15T04:09:21.617Z,0.9
2023-03-15T04:10:24.683Z,0.9
2023-03-15T04:11:27.571Z,0.9
2023-03-15T04:12:31.572Z,0.8
2023-03-15T04:13:35.146Z,0.8
2023-03-15T04:14:38.612Z,0.8
2023-03-15T04:15:41.904Z,0.8
2023-03-15T04:16:44.864Z,0.9
2023-03-15T04:17:47.870Z,0.8
2023-03-15T04:18:50.416Z,0.8
2023-03-15T04:19:54.268Z,0.9
2023-03-15T04:20:57.861Z,0.9
2023-03-15T04:22:00.932Z,0.9
2023-03-15T04:23:04.697Z,0.8
2023-03-15T04:24:07.139Z,0.9
2023-03-15T04:25:10.259Z,0.9
2023-03-15T04:26:13.254Z,0.9
2023-03-15T04:27:17.042Z,0.9
2023-03-15T04:28:19.773Z,0.9
2023-03-15T04:29:22.846Z,0.9
2023-03-15T04:30:25.906Z,1
2023-03-15T04:31:29.476Z,1
2023-03-15T04:32:32.342Z,1
2023-03-15T04:33:35.744Z,1
2023-03-15T04:34:39.922Z,1
2023-03-15T04:35:44.039Z,1
2023-03-15T04:36:48.239Z,1
2023-03-15T04:37:50.866Z,0.9
2023-03-15T04:38:53.858Z,0.9
2023-03-15T04:39:57.362Z,0.9
2023-03-15T04:41:00.621Z,0.9
2023-03-15T04:42:03.385Z,0.9
2023-03-15T04:43:05.685Z,0.9
2023-03-15T04:44:09.360Z,0.9
2023-03-15T04:45:11.660Z,0.9
2023-03-15T04:46:14.667Z,0.9
2023-03-15T04:47:17.784Z,0.9
2023-03-15T04:48:20.780Z,0.9
2023-03-15T04:49:24.121Z,0.9
2023-03-15T04:50:26.561Z,0.9
2023-03-15T04:51:30.080Z,0.9
2023-03-15T04:52:33.883Z,0.9
2023-03-15T04:53:36.888Z,0.9
2023-03-15T04:54:40.344Z,0.8
2023-03-15T04:55:43.476Z,0.8
2023-03-15T04:56:46.625Z,0.8
2023-03-15T04:57:49.446Z,0.8
2023-03-15T04:58:52.227Z,0.8
2023-03-15T04:59:55.453Z,0.8
2023-03-15T05:00:59.017Z,0.8
2023-03-15T05:02:05.393Z,0.8
2023-03-15T05:03:08.479Z,0.8
2023-03-15T05:04:12.124Z,0.8
2023-03-15T05:05:15.121Z,0.7
2023-03-15T05:06:17.913Z,0.8
2023-03-15T05:07:21.015Z,0.8
2023-03-15T05:08:24.842Z,0.8
2023-03-15T05:09:27.663Z,0.8
2023-03-15T05:10:30.478Z,0.8
2023-03-15T05:11:33.810Z,0.8
2023-03-15T05:12:36.883Z,0.8
2023-03-15T05:13:40.396Z,0.9
2023-03-15T05:14:43.905Z,0.8
2023-03-15T05:15:46.167Z,0.8
2023-03-15T05:16:49.340Z,0.9
2023-03-15T05:17:52.673Z,0.9
2023-03-15T05:18:56.015Z,0.8
2023-03-15T05:19:59.382Z,0.8
2023-03-15T05:21:02.367Z,0.9
2023-03-15T05:22:05.559Z,0.9
2023-03-15T05:23:09.361Z,0.9
2023-03-15T05:24:13.503Z,0.9
2023-03-15T05:25:15.974Z,0.9
2023-03-15T05:26:19.342Z,0.9
2023-03-15T05:27:21.893Z,0.9
2023-03-15T05:28:24.624Z,0.9
2023-03-15T05:29:28.078Z,0.9
2023-03-15T05:30:31.423Z,0.9
2023-03-15T05:31:34.563Z,0.9
2023-03-15T05:32:37.976Z,0.9
2023-03-15T05:33:40.580Z,0.9
2023-03-15T05:34:43.445Z,0.9
2023-03-15T05:35:46.870Z,0.9
2023-03-15T05:36:50.056Z,0.9
2023-03-15T05:37:52.763Z,0.9
2023-03-15T05:38:55.951Z,0.8
2023-03-15T05:39:59.963Z,0.9
2023-03-15T05:41:03.069Z,0.9
2023-03-15T05:42:05.511Z,0.9
2023-03-15T05:43:08.933Z,0.9
2023-03-15T05:44:12.571Z,1
2023-03-15T05:45:16.030Z,1
2023-03-15T05:46:19.531Z,0.9
2023-03-15T05:47:22.269Z,0.9
2023-03-15T05:48:25.039Z,0.9
2023-03-15T05:49:28.224Z,0.9
2023-03-15T05:50:31.669Z,0.9
2023-03-15T05:51:34.626Z,0.9
2023-03-15T05:52:37.065Z,0.9
2023-03-15T05:53:40.847Z,0.9
2023-03-15T05:54:44.443Z,0.9
2023-03-15T05:55:48.514Z,0.9
2023-03-15T05:56:51.713Z,0.9
2023-03-15T05:57:54.417Z,0.9
2023-03-15T05:58:57.516Z,0.9
2023-03-15T06:00:01.225Z,0.8
2023-03-15T06:01:04.527Z,0.8
2023-03-15T06:02:07.332Z,0.8
2023-03-15T06:03:10.558Z,0.9
2023-03-15T06:04:13.864Z,0.8
2023-03-15T06:05:17.001Z,0.8
2023-03-15T06:06:21.007Z,0.9
2023-03-15T06:07:24.398Z,0.9
2023-03-15T06:08:28.091Z,0.9
2023-03-15T06:09:31.030Z,0.8
2023-03-15T06:10:34.972Z,0.9
2023-03-15T06:11:39.150Z,0.9
2023-03-15T06:12:41.968Z,0.9
2023-03-15T06:13:45.053Z,0.9
2023-03-15T06:14:47.959Z,1
2023-03-15T06:15:50.487Z,1
2023-03-15T06:16:54.311Z,1
2023-03-15T06:17:57.885Z,1.1
2023-03-15T06:19:01.693Z,1.1
2023-03-15T06:20:04.970Z,1.1
2023-03-15T06:21:08.243Z,1.1
2023-03-15T06:22:10.669Z,1.1
2023-03-15T06:23:14.462Z,1.1
2023-03-15T06:24:17.616Z,1.1
2023-03-15T06:25:20.972Z,1
2023-03-15T06:26:24.792Z,1
2023-03-15T06:27:28.598Z,1
2023-03-15T06:28:31.960Z,1
2023-03-15T06:29:34.949Z,1.1
2023-03-15T06:30:38.259Z,1
2023-03-15T06:31:41.291Z,1
2023-03-15T06:32:45.031Z,1
2023-03-15T06:33:47.993Z,0.9
2023-03-15T06:34:51.365Z,0.9
2023-03-15T06:35:54.752Z,0.9
2023-03-15T06:36:57.508Z,0.9
2023-03-15T06:38:00.420Z,0.8
2023-03-15T06:39:03.517Z,0.8
2023-03-15T06:40:07.014Z,0.8
2023-03-15T06:41:09.839Z,0.8
2023-03-15T06:42:13.123Z,0.9
2023-03-15T06:43:16.648Z,0.9
2023-03-15T06:44:19.349Z,0.9
2023-03-15T06:45:23.101Z,0.9
2023-03-15T06:46:26.537Z,0.9
2023-03-15T06:47:29.648Z,0.9
2023-03-15T06:48:33.106Z,0.9
2023-03-15T06:49:36.143Z,0.9
2023-03-15T06:50:49.236Z,0.9
2023-03-15T06:51:52.882Z,0.9
2023-03-15T06:52:56.315Z,0.9
2023-03-15T06:54:00.033Z,0.9
2023-03-15T06:55:03.136Z,0.9
2023-03-15T06:56:06.501Z,1
2023-03-15T06:57:09.494Z,0.9
2023-03-15T06:58:12.636Z,1
2023-03-15T06:59:16.837Z,0.9
2023-03-15T07:00:20.443Z,0.9
2023-03-15T07:01:24.138Z,0.9
2023-03-15T07:02:27.817Z,0.9
2023-03-15T07:03:31.314Z,0.9
2023-03-15T07:04:34.383Z,0.9
2023-03-15T07:05:37.739Z,0.9
2023-03-15T07:06:40.808Z,1
2023-03-15T07:07:44.454Z,1
2023-03-15T07:08:47.238Z,1.1
2023-03-15T07:09:50.374Z,1.1
2023-03-15T07:10:53.437Z,1.2
2023-03-15T07:11:56.566Z,1.2
2023-03-15T07:12:58.995Z,1.2
2023-03-15T07:14:02.241Z,1.2
2023-03-15T07:15:06.098Z,1.2
2023-03-15T07:16:10.388Z,1.2
2023-03-15T07:17:13.472Z,1.2
2023-03-15T07:18:17.196Z,1.3
2023-03-15T07:19:20.980Z,1.3
2023-03-15T07:20:24.093Z,1.3
2023-03-15T07:21:27.210Z,1.3
2023-03-15T07:22:30.866Z,1.3
2023-03-15T07:23:34.546Z,1.3
2023-03-15T07:24:37.273Z,1.4
2023-03-15T07:25:57.032Z,1.4
2023-03-15T07:27:00.696Z,1.4
2023-03-15T07:28:03.965Z,1.4
2023-03-15T07:29:07.490Z,1.5
2023-03-15T07:30:11.032Z,1.5
2023-03-15T07:31:14.180Z,1.5
2023-03-15T07:32:17.302Z,1.5
2023-03-15T07:33:21.428Z,1.4
2023-03-15T07:34:24.472Z,1.5
2023-03-15T07:35:27.629Z,1.5
2023-03-15T07:36:31.125Z,1.5
2023-03-15T07:37:34.396Z,1.5
2023-03-15T07:38:37.415Z,1.6
2023-03-15T07:39:40.416Z,1.6
2023-03-15T07:40:43.499Z,1.6
2023-03-15T07:41:46.558Z,1.6
2023-03-15T07:42:49.734Z,1.7
2023-03-15T07:43:52.930Z,1.8
2023-03-15T07:44:56.709Z,1.8
2023-03-15T07:46:00.777Z,1.8
2023-03-15T07:47:04.162Z,1.8
2023-03-15T07:48:08.108Z,1.9
2023-03-15T07:49:11.175Z,1.9
2023-03-15T07:50:18.014Z,1.8
2023-03-15T07:51:21.368Z,1.8
2023-03-15T07:52:23.896Z,1.8
2023-03-15T07:53:27.185Z,1.9
2023-03-15T07:54:31.283Z,2
2023-03-15T07:55:35.058Z,2
2023-03-15T07:56:38.766Z,2
2023-03-15T07:57:42.138Z,1.9
2023-03-15T07:58:45.861Z,1.9
2023-03-15T07:59:49.314Z,1.9
2023-03-15T08:00:52.502Z,1.9
2023-03-15T08:01:56.907Z,2
2023-03-15T08:03:00.719Z,2
2023-03-15T08:04:04.273Z,2.2
2023-03-15T08:05:07.266Z,2.2
2023-03-15T08:06:10.604Z,2.2
2023-03-15T08:07:14.055Z,2.3
2023-03-15T08:08:17.369Z,2.4
2023-03-15T08:09:20.534Z,2.4
2023-03-15T08:10:23.901Z,2.5
2023-03-15T08:11:27.528Z,2.4
2023-03-15T08:12:30.709Z,2.3
2023-03-15T08:13:34.456Z,2.3
2023-03-15T08:14:37.600Z,2.3
2023-03-15T08:15:40.969Z,2.3
2023-03-15T08:16:44.876Z,2.3
2023-03-15T08:17:49.159Z,2.3
2023-03-15T08:18:52.592Z,2.3
2023-03-15T08:19:56.296Z,2.3
2023-03-15T08:20:59.942Z,2.3
2023-03-15T08:22:03.070Z,2.4
2023-03-15T08:23:06.155Z,2.5
2023-03-15T08:24:09.213Z,2.5
2023-03-15T08:25:12.688Z,2.6
2023-03-15T08:26:15.967Z,2.7
2023-03-15T08:27:19.077Z,2.7
2023-03-15T08:28:22.354Z,2.7
2023-03-15T08:29:25.368Z,2.8
2023-03-15T08:30:29.357Z,3
2023-03-15T08:31:33.472Z,3
2023-03-15T08:32:37.446Z,3.1
2023-03-15T08:33:41.518Z,3.3
2023-03-15T08:34:44.917Z,3.4
2023-03-15T08:35:48.508Z,3.5
2023-03-15T08:36:52.345Z,3.4
2023-03-15T08:37:56.184Z,3.5
2023-03-15T08:39:00.213Z,3.6
2023-03-15T08:40:03.936Z,3.7
2023-03-15T08:41:07.352Z,3.8
2023-03-15T08:42:10.282Z,3.8
2023-03-15T08:43:12.739Z,3.9
2023-03-15T08:44:16.530Z,4
2023-03-15T08:45:20.152Z,4
2023-03-15T08:46:23.127Z,4
2023-03-15T08:47:26.535Z,4.1
2023-03-15T08:48:29.928Z,4.2
2023-03-15T08:49:34.189Z,4.3
2023-03-15T08:50:36.938Z,4.3
2023-03-15T08:51:39.995Z,4.2
2023-03-15T08:52:43.704Z,4.1
2023-03-15T08:53:46.264Z,4.1
2023-03-15T08:54:49.675Z,3.9
2023-03-15T08:55:53.043Z,3.8
2023-03-15T08:56:56.477Z,3.6
2023-03-15T08:57:59.543Z,3.5
2023-03-15T08:59:03.402Z,3.5
2023-03-15T09:00:06.460Z,3.5
2023-03-15T09:01:10.317Z,3.5
2023-03-15T09:02:14.519Z,3.4
2023-03-15T09:03:18.295Z,3.3
2023-03-15T09:04:22.481Z,3.3
2023-03-15T09:05:26.569Z,3.3
2023-03-15T09:06:29.915Z,3.4
2023-03-15T09:07:33.568Z,3.5
2023-03-15T09:08:36.708Z,3.5
2023-03-15T09:09:40.180Z,3.2
2023-03-15T09:10:43.919Z,3.1
2023-03-15T09:11:47.301Z,3
2023-03-15T09:12:50.654Z,2.9
2023-03-15T09:13:54.021Z,2.8
2023-03-15T09:14:57.359Z,2.8
2023-03-15T09:16:00.713Z,2.7
2023-03-15T09:17:04.222Z,2.7
2023-03-15T09:18:07.778Z,2.7
2023-03-15T09:19:10.718Z,2.7
2023-03-15T09:20:14.209Z,2.7
2023-03-15T09:21:18.148Z,2.7
2023-03-15T09:22:40.984Z,2.7
2023-03-15T09:23:45.185Z,2.8
2023-03-15T09:24:52.886Z,2.7
2023-03-15T09:25:55.896Z,2.6
2023-03-15T09:26:58.453Z,2.6
2023-03-15T09:28:02.181Z,2.6
2023-03-15T09:29:05.652Z,2.7
2023-03-15T09:30:08.705Z,2.7
2023-03-15T09:31:11.592Z,2.7
2023-03-15T09:32:15.018Z,2.8
2023-03-15T09:33:18.682Z,2.9
2023-03-15T09:34:41.757Z,3
2023-03-15T09:35:46.365Z,3.2
2023-03-15T09:36:50.433Z,3.4
2023-03-15T09:37:53.806Z,3.6
2023-03-15T09:38:56.965Z,3.8
2023-03-15T09:39:59.672Z,3.8
2023-03-15T09:41:02.820Z,3.9
2023-03-15T09:42:08.332Z,4.1
2023-03-15T09:43:11.471Z,4
2023-03-15T09:44:15.260Z,3.9
2023-03-15T09:45:18.375Z,3.9
2023-03-15T09:46:22.710Z,3.9
2023-03-15T09:47:25.393Z,4
2023-03-15T09:48:28.141Z,4
2023-03-15T09:49:30.695Z,4
2023-03-15T09:50:33.824Z,4
2023-03-15T09:51:37.360Z,4.2
2023-03-15T09:52:41.523Z,4.3
2023-03-15T09:53:45.557Z,4.4
2023-03-15T09:54:49.292Z,4.4
2023-03-15T09:55:53.003Z,4.5
2023-03-15T09:56:55.514Z,4.7
2023-03-15T09:57:58.707Z,4.9
2023-03-15T09:59:02.217Z,5.1
2023-03-15T10:00:04.957Z,5.1
2023-03-15T10:01:08.233Z,5.4
2023-03-15T10:02:12.043Z,5.4
2023-03-15T10:03:15.744Z,5.4
2023-03-15T10:04:18.741Z,5.3
2023-03-15T10:05:21.686Z,5.5
2023-03-15T10:06:24.684Z,5.4
2023-03-15T10:07:28.062Z,5.7
2023-03-15T10:08:31.852Z,5.9
2023-03-15T10:09:35.100Z,6.2
2023-03-15T10:10:38.460Z,6.3
2023-03-15T10:11:42.325Z,6.3
2023-03-15T10:12:46.330Z,6.2
2023-03-15T10:13:49.959Z,6.3
2023-03-15T10:14:53.437Z,6
2023-03-15T10:15:57.365Z,6.2
2023-03-15T10:17:00.712Z,6.2
2023-03-15T10:18:03.836Z,6.3
2023-03-15T10:19:07.506Z,6.6
2023-03-15T10:20:10.731Z,6.7
2023-03-15T10:21:14.095Z,6.9
2023-03-15T10:22:17.174Z,6.9
2023-03-15T10:23:21.364Z,6.9
2023-03-15T10:24:25.431Z,7.1
2023-03-15T10:25:29.124Z,7.2
2023-03-15T10:26:32.603Z,7.2
2023-03-15T10:27:35.817Z,7.4
2023-03-15T10:28:39.231Z,7.7
2023-03-15T10:29:42.938Z,8
2023-03-15T10:30:46.121Z,8.1
2023-03-15T10:31:50.486Z,8.3
2023-03-15T10:32:53.859Z,8.2
2023-03-15T10:33:57.343Z,8.2
2023-03-15T10:35:00.977Z,8
2023-03-15T10:36:13.212Z,7.7
2023-03-15T10:37:16.777Z,8
2023-03-15T10:38:20.135Z,7.8
2023-03-15T10:39:24.296Z,7.7
2023-03-15T10:40:28.418Z,7.5
2023-03-15T10:41:31.562Z,7.3
2023-03-15T10:42:34.312Z,7.3
2023-03-15T10:43:37.189Z,7.2
2023-03-15T10:44:40.485Z,7.1
2023-03-15T10:45:44.076Z,7
2023-03-15T10:46:47.295Z,6.9
2023-03-15T10:48:02.106Z,7.1
2023-03-15T10:49:05.418Z,7.4
2023-03-15T10:50:09.155Z,7.6
2023-03-15T10:51:14.075Z,7.7
2023-03-15T10:52:16.888Z,7.7
2023-03-15T10:53:20.623Z,7.5
2023-03-15T10:54:23.835Z,7.4
2023-03-15T10:55:27.340Z,7.6
2023-03-15T10:56:31.742Z,7.7
2023-03-15T10:57:35.242Z,7.6
2023-03-15T10:58:38.637Z,7.6
2023-03-15T10:59:41.745Z,7.9
2023-03-15T11:00:45.743Z,8
2023-03-15T11:01:48.812Z,7.9
2023-03-15T11:02:52.496Z,7.9
2023-03-15T11:03:56.243Z,7.7
2023-03-15T11:04:59.312Z,7.5
2023-03-15T11:06:02.723Z,7.2
2023-03-15T11:07:05.832Z,6.9
2023-03-15T11:08:09.347Z,6.8
2023-03-15T11:09:12.988Z,6.8
2023-03-15T11:10:16.009Z,6.8
2023-03-15T11:11:19.532Z,7.1
2023-03-15T11:12:23.675Z,7.2
2023-03-15T11:13:27.399Z,7.1
2023-03-15T11:14:30.817Z,7.3
2023-03-15T11:15:34.487Z,7.4
2023-03-15T11:16:38.411Z,7.5
2023-03-15T11:17:41.782Z,7.6
2023-03-15T11:18:44.790Z,7.8
2023-03-15T11:19:47.786Z,8
2023-03-15T11:20:51.501Z,8.2
2023-03-15T11:21:54.889Z,8.5
2023-03-15T11:22:57.895Z,8.5
2023-03-15T11:24:00.891Z,8.3
2023-03-15T11:25:04.333Z,7.8
2023-03-15T11:26:07.345Z,7.7
2023-03-15T11:27:12.274Z,7.6
2023-03-15T11:28:16.193Z,7.5
2023-03-15T11:29:19.493Z,7.4
2023-03-15T11:30:22.222Z,7.5
2023-03-15T11:31:25.531Z,7.7
2023-03-15T11:32:28.706Z,7.6
2023-03-15T11:33:31.541Z,7.3
2023-03-15T11:34:34.884Z,7.3
2023-03-15T11:35:38.452Z,7.1
2023-03-15T11:36:40.355Z,7.1
2023-03-15T11:37:43.390Z,7.4
2023-03-15T11:38:46.365Z,7.7
2023-03-15T11:40:12.919Z,7.8
2023-03-15T11:41:20.645Z,8
2023-03-15T11:42:24.464Z,7.9
2023-03-15T11:43:28.255Z,7.9
2023-03-15T11:44:30.987Z,8.1
2023-03-15T11:45:35.440Z,8.2
2023-03-15T11:46:39.216Z,8.4
2023-03-15T11:47:42.982Z,8.7
2023-03-15T11:48:46.270Z,8.8
2023-03-15T11:49:49.368Z,8.7
2023-03-15T11:50:52.110Z,8.7
2023-03-15T11:51:55.818Z,8.8
2023-03-15T11:52:58.926Z,8.8
2023-03-15T11:54:02.630Z,8.6
2023-03-15T11:55:05.583Z,8.5
2023-03-15T11:56:08.860Z,8.4
2023-03-15T11:57:11.931Z,8.3
2023-03-15T11:58:15.410Z,8.1
2023-03-15T11:59:19.543Z,7.9
2023-03-15T12:00:23.116Z,7.9
2023-03-15T12:01:26.199Z,8
2023-03-15T12:02:30.239Z,7.8
2023-03-15T12:03:34.117Z,7.6
2023-03-15T12:04:37.364Z,7.6
2023-03-15T12:05:40.745Z,7.4
2023-03-15T12:06:44.214Z,7.1
2023-03-15T12:07:47.857Z,6.8
2023-03-15T12:08:51.393Z,6.7
2023-03-15T12:09:54.755Z,6.7
2023-03-15T12:10:58.000Z,6.6
2023-03-15T12:12:01.309Z,6.7
2023-03-15T12:13:04.582Z,6.8
2023-03-15T12:14:08.787Z,7
2023-03-15T12:15:13.090Z,7.1
2023-03-15T12:16:16.529Z,7.2
2023-03-15T12:17:19.615Z,7.2
2023-03-15T12:18:22.732Z,7.1
2023-03-15T12:19:26.607Z,7.1
2023-03-15T12:20:30.069Z,7.1
2023-03-15T12:21:33.479Z,7
2023-03-15T12:22:37.253Z,7.1
2023-03-15T12:23:40.745Z,7.3
2023-03-15T12:24:43.546Z,7.7
2023-03-15T12:25:56.638Z,8
2023-03-15T12:26:59.630Z,8.3
2023-03-15T12:28:02.361Z,8.4
2023-03-15T12:29:05.161Z,8.6
2023-03-15T12:30:08.000Z,8.6
2023-03-15T12:31:12.436Z,8.8
2023-03-15T12:32:16.118Z,9
2023-03-15T12:33:19.495Z,9
2023-03-15T12:34:22.607Z,8.5
2023-03-15T12:35:25.964Z,8.4
2023-03-15T12:36:28.967Z,8
2023-03-15T12:37:32.150Z,7.8
2023-03-15T12:38:35.144Z,7.7
2023-03-15T12:39:38.722Z,7.6
2023-03-15T12:40:41.743Z,7.5
2023-03-15T12:41:44.850Z,7.5
2023-03-15T12:42:48.046Z,7.3
2023-03-15T12:43:51.456Z,7.4
2023-03-15T12:44:54.871Z,7.4
2023-03-15T12:45:58.903Z,7.3
2023-03-15T12:47:02.563Z,7.1
2023-03-15T12:48:06.015Z,7
2023-03-15T12:49:09.840Z,7
2023-03-15T12:50:12.872Z,7
2023-03-15T12:51:16.360Z,7
2023-03-15T12:52:19.236Z,7.2
2023-03-15T12:53:22.976Z,7.3
2023-03-15T12:54:25.986Z,7.4
2023-03-15T12:55:29.697Z,7.2
2023-03-15T12:56:32.531Z,7.1
2023-03-15T12:57:36.363Z,7.2
2023-03-15T12:58:39.131Z,7.2
2023-03-15T12:59:43.189Z,7.1
2023-03-15T13:00:45.796Z,7
2023-03-15T13:01:50.122Z,6.9
2023-03-15T13:02:54.654Z,6.8
2023-03-15T13:03:58.433Z,6.7
2023-03-15T13:05:02.452Z,6.7
2023-03-15T13:06:06.133Z,6.7
2023-03-15T13:07:09.519Z,6.8
2023-03-15T13:08:12.855Z,6.8
2023-03-15T13:09:16.544Z,6.7
2023-03-15T13:10:19.265Z,6.7
2023-03-15T13:11:22.996Z,6.6
2023-03-15T13:12:26.346Z,6.6
2023-03-15T13:13:29.704Z,6.7
2023-03-15T13:14:33.142Z,6.8
2023-03-15T13:15:38.110Z,6.8
2023-03-15T13:16:43.773Z,7
2023-03-15T13:17:47.027Z,6.9
2023-03-15T13:18:50.880Z,6.8
2023-03-15T13:19:54.611Z,6.6
2023-03-15T13:20:57.969Z,6.5
2023-03-15T13:22:01.426Z,6.6
2023-03-15T13:23:04.966Z,6.6
2023-03-15T13:24:07.676Z,6.5
2023-03-15T13:25:11.410Z,6.4
2023-03-15T13:26:14.881Z,6.3
2023-03-15T13:27:18.617Z,6.3
2023-03-15T13:28:22.262Z,6.1
2023-03-15T13:29:25.708Z,6
2023-03-15T13:30:29.329Z,5.9
2023-03-15T13:31:33.721Z,5.6
2023-03-15T13:32:37.373Z,5.4
2023-03-15T13:33:40.601Z,5.1
2023-03-15T13:34:44.709Z,4.9
2023-03-15T13:35:47.490Z,4.6
2023-03-15T13:36:50.447Z,4.4
2023-03-15T13:37:53.264Z,4.1
2023-03-15T13:38:56.932Z,4.1
2023-03-15T13:40:00.714Z,4.1
2023-03-15T13:41:04.165Z,4.1
2023-03-15T13:42:07.549Z,4.1
2023-03-15T13:43:09.997Z,4.1
2023-03-15T13:44:13.087Z,4.2
2023-03-15T13:45:15.888Z,4.4
2023-03-15T13:46:19.885Z,4.7
2023-03-15T13:47:22.982Z,4.9
2023-03-15T13:48:26.363Z,5.1
2023-03-15T13:49:29.943Z,5.5
2023-03-15T13:50:34.248Z,5.8
2023-03-15T13:51:37.637Z,6.1
2023-03-15T13:52:41.011Z,6.2
2023-03-15T13:53:52.173Z,6.5
2023-03-15T13:54:55.613Z,6.8
2023-03-15T13:55:59.147Z,6.9
2023-03-15T13:57:02.874Z,7
2023-03-15T13:58:05.978Z,7
2023-03-15T13:59:09.778Z,6.8
2023-03-15T14:00:12.706Z,6.7
2023-03-15T14:01:16.239Z,6.7
2023-03-15T14:02:19.926Z,6.6
2023-03-15T14:03:23.035Z,6.6
2023-03-15T14:04:26.125Z,6.4
2023-03-15T14:05:29.344Z,6.2
2023-03-15T14:06:33.500Z,6
2023-03-15T14:07:37.169Z,5.9
2023-03-15T14:08:40.184Z,5.9
2023-03-15T14:09:43.448Z,5.8
2023-03-15T14:10:47.113Z,5.7
2023-03-15T14:11:51.209Z,5.5
2023-03-15T14:12:54.973Z,5.6
2023-03-15T14:13:58.077Z,5.6
2023-03-15T14:15:01.199Z,5.5
2023-03-15T14:16:04.886Z,5.5
2023-03-15T14:17:07.830Z,5.5
2023-03-15T14:18:11.200Z,5.5
2023-03-15T14:19:14.649Z,5.4
2023-03-15T14:20:18.133Z,5.5
2023-03-15T14:21:22.539Z,5.4
2023-03-15T14:22:26.891Z,5.4
2023-03-15T14:23:30.298Z,5.4
2023-03-15T14:24:33.033Z,5.4
2023-03-15T14:25:37.147Z,5.3
2023-03-15T14:26:41.008Z,5.3
2023-03-15T14:27:44.670Z,5.3
2023-03-15T14:28:47.681Z,5.4
2023-03-15T14:29:51.059Z,5.4
2023-03-15T14:30:54.162Z,5.3
2023-03-15T14:31:57.820Z,5.3
2023-03-15T14:33:00.862Z,5.4
2023-03-15T14:34:03.692Z,5.5
2023-03-15T14:35:06.852Z,5.7
2023-03-15T14:36:11.543Z,5.9
2023-03-15T14:37:15.069Z,6.4
2023-03-15T14:38:19.199Z,6.7
2023-03-15T14:39:22.510Z,6.9
2023-03-15T14:40:25.758Z,7.1